Terminal Aerodrome Forecast
Issued by NWS Wilmington, OH

Current Version | Previous Version | Text Only | Print | Product List | Glossary Off
Versions: 1 2 3 4 5 6 7 8 9 10 11 12 13 14 15 16 17 18 19 20 21

000
FTUS41 KILN 190329 AAA
TAFCMH
TAF AMD
KCMH 190329Z 1903/1924 24006KT P6SM OVC009
      TEMPO 1910/1914 OVC012
     FM191400 14004KT P6SM OVC250=

USA.gov is the U.S. government's official web portal to all federal, state and local government web resources and services.